sensor_id;sensor_type;location;lat;lon;timestamp;temperature;humidity
36206;DHT22;22242;48.796;9.930;2024-02-14T00:01:11;4.70;99.90
36206;DHT22;22242;48.796;9.930;2024-02-14T00:03:38;4.60;99.90
36206;DHT22;22242;48.796;9.930;2024-02-14T00:06:05;4.90;99.90
36206;DHT22;22242;48.796;9.930;2024-02-14T00:08:32;4.80;99.90
36206;DHT22;22242;48.796;9.930;2024-02-14T00:11:00;4.90;99.90
36206;DHT22;22242;48.796;9.930;2024-02-14T00:13:27;4.90;99.90
36206;DHT22;22242;48.796;9.930;2024-02-14T00:15:54;5.00;99.90
36206;DHT22;22242;48.796;9.930;2024-02-14T00:18:22;5.00;99.90
36206;DHT22;22242;48.796;9.930;2024-02-14T00:20:49;5.00;99.90
36206;DHT22;22242;48.796;9.930;2024-02-14T00:23:15;4.80;99.90
36206;DHT22;22242;48.796;9.930;2024-02-14T00:25:42;4.80;99.90
36206;DHT22;22242;48.796;9.930;2024-02-14T00:28:10;4.90;99.90
36206;DHT22;22242;48.796;9.930;2024-02-14T00:30:37;4.80;99.90
36206;DHT22;22242;48.796;9.930;2024-02-14T00:33:04;4.50;99.90
36206;DHT22;22242;48.796;9.930;2024-02-14T00:35:32;4.70;99.90
36206;DHT22;22242;48.796;9.930;2024-02-14T00:37:59;4.50;99.90
36206;DHT22;22242;48.796;9.930;2024-02-14T00:40:25;4.40;99.90
36206;DHT22;22242;48.796;9.930;2024-02-14T00:42:52;4.40;99.90
36206;DHT22;22242;48.796;9.930;2024-02-14T00:45:20;3.90;99.90
36206;DHT22;22242;48.796;9.930;2024-02-14T00:47:47;3.60;99.90
36206;DHT22;22242;48.796;9.930;2024-02-14T00:50:14;3.30;99.90
36206;DHT22;22242;48.796;9.930;2024-02-14T00:52:41;3.20;99.90
36206;DHT22;22242;48.796;9.930;2024-02-14T00:55:08;3.10;99.90
36206;DHT22;22242;48.796;9.930;2024-02-14T00:57:35;3.20;99.90
36206;DHT22;22242;48.796;9.930;2024-02-14T01:00:02;3.20;99.90
36206;DHT22;22242;48.796;9.930;2024-02-14T01:02:32;3.20;99.90
36206;DHT22;22242;48.796;9.930;2024-02-14T01:04:59;3.20;99.90
36206;DHT22;22242;48.796;9.930;2024-02-14T01:07:26;3.30;99.90
36206;DHT22;22242;48.796;9.930;2024-02-14T01:09:53;3.50;99.90
36206;DHT22;22242;48.796;9.930;2024-02-14T01:12:20;4.00;99.90
36206;DHT22;22242;48.796;9.930;2024-02-14T01:14:46;4.30;99.90
36206;DHT22;22242;48.796;9.930;2024-02-14T01:17:13;4.40;99.90
36206;DHT22;22242;48.796;9.930;2024-02-14T01:19:41;4.30;99.90
36206;DHT22;22242;48.796;9.930;2024-02-14T01:22:09;4.10;99.90
36206;DHT22;22242;48.796;9.930;2024-02-14T01:24:36;4.00;99.90
36206;DHT22;22242;48.796;9.930;2024-02-14T01:27:03;3.80;99.90
36206;DHT22;22242;48.796;9.930;2024-02-14T01:29:30;3.70;99.90
36206;DHT22;22242;48.796;9.930;2024-02-14T01:31:57;3.70;99.90
36206;DHT22;22242;48.796;9.930;2024-02-14T01:34:24;3.50;99.90
36206;DHT22;22242;48.796;9.930;2024-02-14T01:36:52;3.60;99.90
36206;DHT22;22242;48.796;9.930;2024-02-14T01:39:20;3.40;99.90
36206;DHT22;22242;48.796;9.930;2024-02-14T01:41:48;3.40;99.90
36206;DHT22;22242;48.796;9.930;2024-02-14T01:44:15;3.30;99.90
36206;DHT22;22242;48.796;9.930;2024-02-14T01:46:42;3.20;99.90
36206;DHT22;22242;48.796;9.930;2024-02-14T01:49:09;3.20;99.90
36206;DHT22;22242;48.796;9.930;2024-02-14T01:51:38;3.20;99.90
36206;DHT22;22242;48.796;9.930;2024-02-14T01:54:08;3.10;99.90
36206;DHT22;22242;48.796;9.930;2024-02-14T01:56:35;3.10;99.90
36206;DHT22;22242;48.796;9.930;2024-02-14T01:59:02;3.20;99.90
36206;DHT22;22242;48.796;9.930;2024-02-14T02:01:29;3.10;99.90
36206;DHT22;22242;48.796;9.930;2024-02-14T02:03:57;3.20;99.90
36206;DHT22;22242;48.796;9.930;2024-02-14T02:06:24;3.40;99.90
36206;DHT22;22242;48.796;9.930;2024-02-14T02:08:52;3.50;99.90
36206;DHT22;22242;48.796;9.930;2024-02-14T02:11:20;3.60;99.90
36206;DHT22;22242;48.796;9.930;2024-02-14T02:13:47;3.80;99.90
36206;DHT22;22242;48.796;9.930;2024-02-14T02:16:15;3.80;99.90
36206;DHT22;22242;48.796;9.930;2024-02-14T02:18:45;3.90;99.90
36206;DHT22;22242;48.796;9.930;2024-02-14T02:21:11;3.90;99.90
36206;DHT22;22242;48.796;9.930;2024-02-14T02:23:40;4.00;99.90
36206;DHT22;22242;48.796;9.930;2024-02-14T02:26:09;4.00;99.90
36206;DHT22;22242;48.796;9.930;2024-02-14T02:28:36;3.90;99.90
36206;DHT22;22242;48.796;9.930;2024-02-14T02:31:05;3.90;99.90
36206;DHT22;22242;48.796;9.930;2024-02-14T02:33:32;3.90;99.90
36206;DHT22;22242;48.796;9.930;2024-02-14T02:35:59;3.80;99.90
36206;DHT22;22242;48.796;9.930;2024-02-14T02:38:26;3.90;99.90
36206;DHT22;22242;48.796;9.930;2024-02-14T02:40:54;3.80;99.90
36206;DHT22;22242;48.796;9.930;2024-02-14T02:43:21;3.70;99.90
36206;DHT22;22242;48.796;9.930;2024-02-14T02:45:48;3.70;99.90
36206;DHT22;22242;48.796;9.930;2024-02-14T02:48:15;3.70;99.90
36206;DHT22;22242;48.796;9.930;2024-02-14T02:50:41;3.70;99.90
36206;DHT22;22242;48.796;9.930;2024-02-14T02:53:10;3.80;99.90
36206;DHT22;22242;48.796;9.930;2024-02-14T02:55:37;3.90;99.90
36206;DHT22;22242;48.796;9.930;2024-02-14T02:58:05;3.90;99.90
36206;DHT22;22242;48.796;9.930;2024-02-14T03:00:32;4.00;99.90
36206;DHT22;22242;48.796;9.930;2024-02-14T03:02:59;4.10;99.90
36206;DHT22;22242;48.796;9.930;2024-02-14T03:05:28;4.40;99.90
36206;DHT22;22242;48.796;9.930;2024-02-14T03:07:57;5.10;99.90
36206;DHT22;22242;48.796;9.930;2024-02-14T03:10:24;5.10;99.90
36206;DHT22;22242;48.796;9.930;2024-02-14T03:12:51;5.20;99.90
36206;DHT22;22242;48.796;9.930;2024-02-14T03:15:19;5.10;99.90
36206;DHT22;22242;48.796;9.930;2024-02-14T03:17:46;5.40;99.90
36206;DHT22;22242;48.796;9.930;2024-02-14T03:20:13;5.60;99.90
36206;DHT22;22242;48.796;9.930;2024-02-14T03:22:40;5.50;99.90
36206;DHT22;22242;48.796;9.930;2024-02-14T03:25:12;5.30;99.90
36206;DHT22;22242;48.796;9.930;2024-02-14T03:27:39;5.30;99.90
36206;DHT22;22242;48.796;9.930;2024-02-14T03:30:07;5.20;99.90
36206;DHT22;22242;48.796;9.930;2024-02-14T03:32:35;5.10;99.90
36206;DHT22;22242;48.796;9.930;2024-02-14T03:35:02;5.10;99.90
36206;DHT22;22242;48.796;9.930;2024-02-14T03:37:29;5.00;99.90
36206;DHT22;22242;48.796;9.930;2024-02-14T03:39:56;4.90;99.90
36206;DHT22;22242;48.796;9.930;2024-02-14T03:42:22;4.70;99.90
36206;DHT22;22242;48.796;9.930;2024-02-14T03:44:51;4.80;99.90
36206;DHT22;22242;48.796;9.930;2024-02-14T03:47:18;4.60;99.90
36206;DHT22;22242;48.796;9.930;2024-02-14T03:49:47;4.50;99.90
36206;DHT22;22242;48.796;9.930;2024-02-14T03:52:13;4.30;99.90
36206;DHT22;22242;48.796;9.930;2024-02-14T03:54:40;4.20;99.90
36206;DHT22;22242;48.796;9.930;2024-02-14T03:57:07;4.00;99.90
36206;DHT22;22242;48.796;9.930;2024-02-14T03:59:36;4.10;99.90
36206;DHT22;22242;48.796;9.930;2024-02-14T04:02:04;5.00;99.90
36206;DHT22;22242;48.796;9.930;2024-02-14T04:04:32;4.90;99.90
36206;DHT22;22242;48.796;9.930;2024-02-14T04:07:03;4.80;99.90
36206;DHT22;22242;48.796;9.930;2024-02-14T04:09:30;4.60;99.90
36206;DHT22;22242;48.796;9.930;2024-02-14T04:11:56;4.50;99.90
36206;DHT22;22242;48.796;9.930;2024-02-14T04:14:23;4.30;99.90
36206;DHT22;22242;48.796;9.930;2024-02-14T04:16:50;4.20;99.90
36206;DHT22;22242;48.796;9.930;2024-02-14T04:19:17;4.10;99.90
36206;DHT22;22242;48.796;9.930;2024-02-14T04:21:46;4.00;99.90
36206;DHT22;22242;48.796;9.930;2024-02-14T04:24:14;4.00;99.90
36206;DHT22;22242;48.796;9.930;2024-02-14T04:26:41;3.90;99.90
36206;DHT22;22242;48.796;9.930;2024-02-14T04:29:08;3.80;99.90
36206;DHT22;22242;48.796;9.930;2024-02-14T04:31:35;3.70;99.90
36206;DHT22;22242;48.796;9.930;2024-02-14T04:34:02;3.70;99.90
36206;DHT22;22242;48.796;9.930;2024-02-14T04:36:30;3.70;99.90
36206;DHT22;22242;48.796;9.930;2024-02-14T04:38:58;3.60;99.90
36206;DHT22;22242;48.796;9.930;2024-02-14T04:41:26;3.40;99.90
36206;DHT22;22242;48.796;9.930;2024-02-14T04:43:53;3.40;99.90
36206;DHT22;22242;48.796;9.930;2024-02-14T04:46:20;3.40;99.90
36206;DHT22;22242;48.796;9.930;2024-02-14T04:48:48;3.40;99.90
36206;DHT22;22242;48.796;9.930;2024-02-14T04:51:14;3.40;99.90
36206;DHT22;22242;48.796;9.930;2024-02-14T04:53:41;3.50;99.90
36206;DHT22;22242;48.796;9.930;2024-02-14T04:56:08;3.60;99.90
36206;DHT22;22242;48.796;9.930;2024-02-14T04:58:36;3.70;99.90
36206;DHT22;22242;48.796;9.930;2024-02-14T05:01:03;3.70;99.90
36206;DHT22;22242;48.796;9.930;2024-02-14T05:03:30;3.80;99.90
36206;DHT22;22242;48.796;9.930;2024-02-14T05:05:57;4.00;99.90
36206;DHT22;22242;48.796;9.930;2024-02-14T05:08:24;4.20;99.90
36206;DHT22;22242;48.796;9.930;2024-02-14T05:10:51;4.20;99.90
36206;DHT22;22242;48.796;9.930;2024-02-14T05:13:18;4.30;99.90
36206;DHT22;22242;48.796;9.930;2024-02-14T05:15:46;4.40;99.90
36206;DHT22;22242;48.796;9.930;2024-02-14T05:18:13;4.40;99.90
36206;DHT22;22242;48.796;9.930;2024-02-14T05:20:40;4.40;99.90
36206;DHT22;22242;48.796;9.930;2024-02-14T05:23:06;4.30;99.90
36206;DHT22;22242;48.796;9.930;2024-02-14T05:25:34;4.40;99.90
36206;DHT22;22242;48.796;9.930;2024-02-14T05:28:00;4.40;99.90
36206;DHT22;22242;48.796;9.930;2024-02-14T05:30:27;4.50;99.90
36206;DHT22;22242;48.796;9.930;2024-02-14T05:32:56;4.50;99.90
36206;DHT22;22242;48.796;9.930;2024-02-14T05:35:23;4.50;99.90
36206;DHT22;22242;48.796;9.930;2024-02-14T05:37:50;4.50;99.90
36206;DHT22;22242;48.796;9.930;2024-02-14T05:40:16;4.40;99.90
36206;DHT22;22242;48.796;9.930;2024-02-14T05:42:43;4.40;99.90
36206;DHT22;22242;48.796;9.930;2024-02-14T05:45:10;4.30;99.90
36206;DHT22;22242;48.796;9.930;2024-02-14T05:47:38;4.30;99.90
36206;DHT22;22242;48.796;9.930;2024-02-14T05:50:07;4.60;99.90
36206;DHT22;22242;48.796;9.930;2024-02-14T05:52:37;4.70;99.90
36206;DHT22;22242;48.796;9.930;2024-02-14T05:55:04;4.90;99.90
36206;DHT22;22242;48.796;9.930;2024-02-14T05:57:31;5.10;99.90
36206;DHT22;22242;48.796;9.930;2024-02-14T05:59:58;5.10;99.90
36206;DHT22;22242;48.796;9.930;2024-02-14T06:02:25;5.10;99.90
36206;DHT22;22242;48.796;9.930;2024-02-14T06:04:52;4.90;99.90
36206;DHT22;22242;48.796;9.930;2024-02-14T06:07:20;4.80;99.90
36206;DHT22;22242;48.796;9.930;2024-02-14T06:09:47;4.90;99.90
36206;DHT22;22242;48.796;9.930;2024-02-14T06:12:14;5.40;99.90
36206;DHT22;22242;48.796;9.930;2024-02-14T06:14:40;5.70;99.90
36206;DHT22;22242;48.796;9.930;2024-02-14T06:17:07;6.50;99.90
36206;DHT22;22242;48.796;9.930;2024-02-14T06:19:34;6.50;99.90
36206;DHT22;22242;48.796;9.930;2024-02-14T06:22:01;6.50;99.90
36206;DHT22;22242;48.796;9.930;2024-02-14T06:24:29;6.50;99.90
36206;DHT22;22242;48.796;9.930;2024-02-14T06:26:56;6.50;99.90
36206;DHT22;22242;48.796;9.930;2024-02-14T06:29:23;6.70;99.90
36206;DHT22;22242;48.796;9.930;2024-02-14T06:31:50;6.80;99.90
36206;DHT22;22242;48.796;9.930;2024-02-14T06:34:17;6.90;99.90
36206;DHT22;22242;48.796;9.930;2024-02-14T06:36:45;6.80;99.90
36206;DHT22;22242;48.796;9.930;2024-02-14T06:39:12;6.80;99.90
36206;DHT22;22242;48.796;9.930;2024-02-14T06:41:40;6.80;99.90
36206;DHT22;22242;48.796;9.930;2024-02-14T06:44:09;6.90;99.90
36206;DHT22;22242;48.796;9.930;2024-02-14T06:46:36;6.90;99.90
36206;DHT22;22242;48.796;9.930;2024-02-14T06:49:03;7.00;99.90
36206;DHT22;22242;48.796;9.930;2024-02-14T06:51:30;6.80;99.90
36206;DHT22;22242;48.796;9.930;2024-02-14T06:53:57;6.80;99.90
36206;DHT22;22242;48.796;9.930;2024-02-14T06:56:23;6.80;99.90
36206;DHT22;22242;48.796;9.930;2024-02-14T06:58:52;7.00;99.90
36206;DHT22;22242;48.796;9.930;2024-02-14T07:01:19;7.00;99.90
36206;DHT22;22242;48.796;9.930;2024-02-14T07:03:47;7.00;99.90
36206;DHT22;22242;48.796;9.930;2024-02-14T07:06:14;7.50;99.90
36206;DHT22;22242;48.796;9.930;2024-02-14T07:08:41;7.50;99.90
36206;DHT22;22242;48.796;9.930;2024-02-14T07:11:08;7.50;99.90
36206;DHT22;22242;48.796;9.930;2024-02-14T07:13:35;7.40;99.90
36206;DHT22;22242;48.796;9.930;2024-02-14T07:16:03;7.20;99.90
36206;DHT22;22242;48.796;9.930;2024-02-14T07:18:30;6.90;99.90
36206;DHT22;22242;48.796;9.930;2024-02-14T07:20:57;6.90;99.90
36206;DHT22;22242;48.796;9.930;2024-02-14T07:23:23;6.70;99.90
36206;DHT22;22242;48.796;9.930;2024-02-14T07:25:51;6.60;99.90
36206;DHT22;22242;48.796;9.930;2024-02-14T07:28:18;6.50;99.90
36206;DHT22;22242;48.796;9.930;2024-02-14T07:30:45;6.50;99.90
36206;DHT22;22242;48.796;9.930;2024-02-14T07:33:13;6.40;99.90
36206;DHT22;22242;48.796;9.930;2024-02-14T07:35:40;6.30;99.90
36206;DHT22;22242;48.796;9.930;2024-02-14T07:38:08;6.30;99.90
36206;DHT22;22242;48.796;9.930;2024-02-14T07:40:35;6.30;99.90
36206;DHT22;22242;48.796;9.930;2024-02-14T07:43:01;6.30;99.90
36206;DHT22;22242;48.796;9.930;2024-02-14T07:45:28;6.30;99.90
36206;DHT22;22242;48.796;9.930;2024-02-14T07:47:55;6.20;99.90
36206;DHT22;22242;48.796;9.930;2024-02-14T07:50:23;6.10;99.90
36206;DHT22;22242;48.796;9.930;2024-02-14T07:52:50;5.90;99.90
36206;DHT22;22242;48.796;9.930;2024-02-14T07:55:17;5.90;99.90
36206;DHT22;22242;48.796;9.930;2024-02-14T07:57:44;5.90;99.90
36206;DHT22;22242;48.796;9.930;2024-02-14T08:00:12;5.90;99.90
36206;DHT22;22242;48.796;9.930;2024-02-14T08:02:44;5.90;99.90
36206;DHT22;22242;48.796;9.930;2024-02-14T08:05:11;5.80;99.90
36206;DHT22;22242;48.796;9.930;2024-02-14T08:07:39;5.70;99.90
36206;DHT22;22242;48.796;9.930;2024-02-14T08:10:06;5.80;99.90
36206;DHT22;22242;48.796;9.930;2024-02-14T08:12:34;6.00;99.90
36206;DHT22;22242;48.796;9.930;2024-02-14T08:15:01;6.10;99.90
36206;DHT22;22242;48.796;9.930;2024-02-14T08:17:30;6.10;99.90
36206;DHT22;22242;48.796;9.930;2024-02-14T08:19:57;6.10;99.90
36206;DHT22;22242;48.796;9.930;2024-02-14T08:22:23;6.20;99.90
36206;DHT22;22242;48.796;9.930;2024-02-14T08:24:53;6.40;99.90
36206;DHT22;22242;48.796;9.930;2024-02-14T08:27:21;6.60;99.90
36206;DHT22;22242;48.796;9.930;2024-02-14T08:29:48;6.60;99.90
36206;DHT22;22242;48.796;9.930;2024-02-14T08:32:15;6.80;99.90
36206;DHT22;22242;48.796;9.930;2024-02-14T08:34:41;7.10;99.90
36206;DHT22;22242;48.796;9.930;2024-02-14T08:37:08;7.70;99.90
36206;DHT22;22242;48.796;9.930;2024-02-14T08:39:36;8.40;99.90
36206;DHT22;22242;48.796;9.930;2024-02-14T08:42:04;9.40;99.90
36206;DHT22;22242;48.796;9.930;2024-02-14T08:44:33;10.80;99.90
36206;DHT22;22242;48.796;9.930;2024-02-14T08:47:00;9.70;99.90
36206;DHT22;22242;48.796;9.930;2024-02-14T08:49:27;9.00;99.90
36206;DHT22;22242;48.796;9.930;2024-02-14T08:51:53;8.50;99.90
36206;DHT22;22242;48.796;9.930;2024-02-14T08:54:20;8.10;99.90
36206;DHT22;22242;48.796;9.930;2024-02-14T08:56:48;7.90;99.90
36206;DHT22;22242;48.796;9.930;2024-02-14T08:59:16;8.00;99.90
36206;DHT22;22242;48.796;9.930;2024-02-14T09:01:42;8.20;99.90
36206;DHT22;22242;48.796;9.930;2024-02-14T09:04:09;8.10;99.90
36206;DHT22;22242;48.796;9.930;2024-02-14T09:06:38;8.00;99.90
36206;DHT22;22242;48.796;9.930;2024-02-14T09:09:06;8.20;99.90
36206;DHT22;22242;48.796;9.930;2024-02-14T09:11:35;8.10;99.90
36206;DHT22;22242;48.796;9.930;2024-02-14T09:14:02;8.10;99.90
36206;DHT22;22242;48.796;9.930;2024-02-14T09:16:33;8.00;99.90
36206;DHT22;22242;48.796;9.930;2024-02-14T09:19:00;8.00;99.90
36206;DHT22;22242;48.796;9.930;2024-02-14T09:21:27;8.10;99.90
36206;DHT22;22242;48.796;9.930;2024-02-14T09:23:54;8.00;99.90
36206;DHT22;22242;48.796;9.930;2024-02-14T09:26:21;8.20;99.90
36206;DHT22;22242;48.796;9.930;2024-02-14T09:28:48;8.30;99.90
36206;DHT22;22242;48.796;9.930;2024-02-14T09:31:18;8.30;99.90
36206;DHT22;22242;48.796;9.930;2024-02-14T09:33:47;8.40;99.90
36206;DHT22;22242;48.796;9.930;2024-02-14T09:36:15;8.60;99.90
36206;DHT22;22242;48.796;9.930;2024-02-14T09:38:42;8.50;99.90
36206;DHT22;22242;48.796;9.930;2024-02-14T09:41:15;8.60;99.90
36206;DHT22;22242;48.796;9.930;2024-02-14T09:43:44;8.70;99.90
36206;DHT22;22242;48.796;9.930;2024-02-14T09:46:13;8.80;99.90
36206;DHT22;22242;48.796;9.930;2024-02-14T09:48:41;8.90;99.90
36206;DHT22;22242;48.796;9.930;2024-02-14T09:51:11;9.20;99.90
36206;DHT22;22242;48.796;9.930;2024-02-14T09:53:39;9.20;99.90
36206;DHT22;22242;48.796;9.930;2024-02-14T09:56:09;9.10;99.90
36206;DHT22;22242;48.796;9.930;2024-02-14T09:58:36;9.10;99.90
36206;DHT22;22242;48.796;9.930;2024-02-14T10:01:04;9.20;99.90
36206;DHT22;22242;48.796;9.930;2024-02-14T10:03:32;9.40;99.90
36206;DHT22;22242;48.796;9.930;2024-02-14T10:05:59;9.60;99.90
36206;DHT22;22242;48.796;9.930;2024-02-14T10:08:28;9.40;99.90
36206;DHT22;22242;48.796;9.930;2024-02-14T10:10:57;9.30;99.90
36206;DHT22;22242;48.796;9.930;2024-02-14T10:13:26;9.60;99.90
36206;DHT22;22242;48.796;9.930;2024-02-14T10:15:52;9.70;99.90
36206;DHT22;22242;48.796;9.930;2024-02-14T10:18:20;9.90;99.90
36206;DHT22;22242;48.796;9.930;2024-02-14T10:20:54;10.20;99.90
36206;DHT22;22242;48.796;9.930;2024-02-14T10:23:21;10.30;99.90
36206;DHT22;22242;48.796;9.930;2024-02-14T10:25:50;10.70;99.90
36206;DHT22;22242;48.796;9.930;2024-02-14T10:28:17;11.00;99.90
36206;DHT22;22242;48.796;9.930;2024-02-14T10:30:45;12.20;99.90
36206;DHT22;22242;48.796;9.930;2024-02-14T10:33:12;13.90;99.90
36206;DHT22;22242;48.796;9.930;2024-02-14T10:35:42;13.10;99.90
36206;DHT22;22242;48.796;9.930;2024-02-14T10:38:09;12.60;99.90
36206;DHT22;22242;48.796;9.930;2024-02-14T10:40:37;12.90;99.90
36206;DHT22;22242;48.796;9.930;2024-02-14T10:43:06;12.40;99.90
36206;DHT22;22242;48.796;9.930;2024-02-14T10:45:35;13.20;99.90
36206;DHT22;22242;48.796;9.930;2024-02-14T10:48:04;14.50;99.90
36206;DHT22;22242;48.796;9.930;2024-02-14T10:50:33;14.20;99.90
36206;DHT22;22242;48.796;9.930;2024-02-14T10:53:04;15.70;99.90
36206;DHT22;22242;48.796;9.930;2024-02-14T10:55:33;15.10;99.90
36206;DHT22;22242;48.796;9.930;2024-02-14T10:58:01;15.50;99.90
36206;DHT22;22242;48.796;9.930;2024-02-14T11:00:30;15.60;99.90
36206;DHT22;22242;48.796;9.930;2024-02-14T11:02:58;15.50;99.90
36206;DHT22;22242;48.796;9.930;2024-02-14T11:05:26;14.90;99.90
36206;DHT22;22242;48.796;9.930;2024-02-14T11:07:53;14.20;99.90
36206;DHT22;22242;48.796;9.930;2024-02-14T11:10:21;14.10;99.90
36206;DHT22;22242;48.796;9.930;2024-02-14T11:12:49;13.10;99.90
36206;DHT22;22242;48.796;9.930;2024-02-14T11:15:17;13.20;99.90
36206;DHT22;22242;48.796;9.930;2024-02-14T11:17:46;13.00;99.90
36206;DHT22;22242;48.796;9.930;2024-02-14T11:20:16;12.40;99.90
36206;DHT22;22242;48.796;9.930;2024-02-14T11:22:52;12.20;99.90
36206;DHT22;22242;48.796;9.930;2024-02-14T11:25:22;12.20;99.90
36206;DHT22;22242;48.796;9.930;2024-02-14T11:27:50;12.10;99.90
36206;DHT22;22242;48.796;9.930;2024-02-14T11:30:28;12.00;99.90
36206;DHT22;22242;48.796;9.930;2024-02-14T11:33:13;11.90;99.90
36206;DHT22;22242;48.796;9.930;2024-02-14T11:35:40;11.80;99.90
36206;DHT22;22242;48.796;9.930;2024-02-14T11:38:08;12.00;99.90
36206;DHT22;22242;48.796;9.930;2024-02-14T11:40:35;12.10;99.90
36206;DHT22;22242;48.796;9.930;2024-02-14T11:43:04;12.10;99.90
36206;DHT22;22242;48.796;9.930;2024-02-14T11:45:31;12.20;99.90
36206;DHT22;22242;48.796;9.930;2024-02-14T11:47:59;12.30;99.90
36206;DHT22;22242;48.796;9.930;2024-02-14T11:50:27;12.30;99.90
36206;DHT22;22242;48.796;9.930;2024-02-14T11:52:54;12.50;99.90
36206;DHT22;22242;48.796;9.930;2024-02-14T11:55:27;12.70;99.90
36206;DHT22;22242;48.796;9.930;2024-02-14T11:57:54;12.70;99.90
36206;DHT22;22242;48.796;9.930;2024-02-14T12:00:22;12.90;99.90
36206;DHT22;22242;48.796;9.930;2024-02-14T12:02:50;12.70;99.90
36206;DHT22;22242;48.796;9.930;2024-02-14T12:05:18;12.50;99.90
36206;DHT22;22242;48.796;9.930;2024-02-14T12:07:46;12.30;99.90
36206;DHT22;22242;48.796;9.930;2024-02-14T12:10:13;12.30;99.90
36206;DHT22;22242;48.796;9.930;2024-02-14T12:12:40;12.20;99.90
36206;DHT22;22242;48.796;9.930;2024-02-14T12:15:09;12.20;99.90
36206;DHT22;22242;48.796;9.930;2024-02-14T12:17:36;12.00;99.90
36206;DHT22;22242;48.796;9.930;2024-02-14T12:20:08;11.90;99.90
36206;DHT22;22242;48.796;9.930;2024-02-14T12:22:38;12.10;99.90
36206;DHT22;22242;48.796;9.930;2024-02-14T12:25:06;12.00;99.90
36206;DHT22;22242;48.796;9.930;2024-02-14T12:27:33;12.10;99.90
36206;DHT22;22242;48.796;9.930;2024-02-14T12:30:03;12.00;99.90
36206;DHT22;22242;48.796;9.930;2024-02-14T12:32:30;11.80;99.90
36206;DHT22;22242;48.796;9.930;2024-02-14T12:34:58;11.70;99.90
36206;DHT22;22242;48.796;9.930;2024-02-14T12:37:25;11.80;99.90
36206;DHT22;22242;48.796;9.930;2024-02-14T12:39:53;11.80;99.90
36206;DHT22;22242;48.796;9.930;2024-02-14T12:42:21;11.70;99.90
36206;DHT22;22242;48.796;9.930;2024-02-14T12:44:51;11.70;99.90
36206;DHT22;22242;48.796;9.930;2024-02-14T12:47:19;11.50;99.90
36206;DHT22;22242;48.796;9.930;2024-02-14T12:49:47;11.50;99.90
36206;DHT22;22242;48.796;9.930;2024-02-14T12:52:15;11.50;99.90
36206;DHT22;22242;48.796;9.930;2024-02-14T12:54:41;11.50;99.90
36206;DHT22;22242;48.796;9.930;2024-02-14T12:57:09;11.50;99.90
36206;DHT22;22242;48.796;9.930;2024-02-14T12:59:37;11.40;99.90
36206;DHT22;22242;48.796;9.930;2024-02-14T13:02:04;11.40;99.90
36206;DHT22;22242;48.796;9.930;2024-02-14T13:04:32;11.30;99.90
36206;DHT22;22242;48.796;9.930;2024-02-14T13:06:59;11.30;99.90
36206;DHT22;22242;48.796;9.930;2024-02-14T13:09:26;11.40;99.90
36206;DHT22;22242;48.796;9.930;2024-02-14T13:11:53;11.30;99.90
36206;DHT22;22242;48.796;9.930;2024-02-14T13:14:21;11.40;99.90
36206;DHT22;22242;48.796;9.930;2024-02-14T13:16:48;11.50;99.90
36206;DHT22;22242;48.796;9.930;2024-02-14T13:19:15;11.50;99.90
36206;DHT22;22242;48.796;9.930;2024-02-14T13:21:42;11.60;99.90
36206;DHT22;22242;48.796;9.930;2024-02-14T13:24:11;11.50;99.90
36206;DHT22;22242;48.796;9.930;2024-02-14T13:26:39;11.60;99.90
36206;DHT22;22242;48.796;9.930;2024-02-14T13:29:06;11.70;99.90
36206;DHT22;22242;48.796;9.930;2024-02-14T13:31:35;12.00;99.90
36206;DHT22;22242;48.796;9.930;2024-02-14T13:34:02;12.40;99.90
36206;DHT22;22242;48.796;9.930;2024-02-14T13:36:30;12.50;99.90
36206;DHT22;22242;48.796;9.930;2024-02-14T13:38:57;12.70;99.90
36206;DHT22;22242;48.796;9.930;2024-02-14T13:41:24;12.60;99.90
36206;DHT22;22242;48.796;9.930;2024-02-14T13:43:50;12.30;99.90
36206;DHT22;22242;48.796;9.930;2024-02-14T13:46:17;12.60;99.90
36206;DHT22;22242;48.796;9.930;2024-02-14T13:48:46;12.50;99.90
36206;DHT22;22242;48.796;9.930;2024-02-14T13:51:13;12.60;99.90
36206;DHT22;22242;48.796;9.930;2024-02-14T13:53:39;12.70;99.90
36206;DHT22;22242;48.796;9.930;2024-02-14T13:56:06;12.80;99.90
36206;DHT22;22242;48.796;9.930;2024-02-14T13:58:33;12.70;99.90
36206;DHT22;22242;48.796;9.930;2024-02-14T14:01:00;12.70;99.90
36206;DHT22;22242;48.796;9.930;2024-02-14T14:03:27;12.40;99.90
36206;DHT22;22242;48.796;9.930;2024-02-14T14:05:56;12.50;99.90
36206;DHT22;22242;48.796;9.930;2024-02-14T14:08:23;12.40;99.90
36206;DHT22;22242;48.796;9.930;2024-02-14T14:10:50;12.20;99.90
36206;DHT22;22242;48.796;9.930;2024-02-14T14:13:17;12.30;99.90
36206;DHT22;22242;48.796;9.930;2024-02-14T14:15:43;12.20;99.90
36206;DHT22;22242;48.796;9.930;2024-02-14T14:18:10;12.20;99.90
36206;DHT22;22242;48.796;9.930;2024-02-14T14:20:37;12.10;99.90
36206;DHT22;22242;48.796;9.930;2024-02-14T14:23:06;12.20;99.90
36206;DHT22;22242;48.796;9.930;2024-02-14T14:25:33;12.30;99.90
36206;DHT22;22242;48.796;9.930;2024-02-14T14:28:00;12.20;99.90
36206;DHT22;22242;48.796;9.930;2024-02-14T14:30:27;12.20;99.90
36206;DHT22;22242;48.796;9.930;2024-02-14T14:32:54;12.20;99.90
36206;DHT22;22242;48.796;9.930;2024-02-14T14:35:21;12.20;99.90
36206;DHT22;22242;48.796;9.930;2024-02-14T14:37:48;12.20;99.90
36206;DHT22;22242;48.796;9.930;2024-02-14T14:40:16;12.30;99.90
36206;DHT22;22242;48.796;9.930;2024-02-14T14:42:43;12.10;99.90
36206;DHT22;22242;48.796;9.930;2024-02-14T14:45:09;12.10;99.90
36206;DHT22;22242;48.796;9.930;2024-02-14T14:47:36;12.20;99.90
36206;DHT22;22242;48.796;9.930;2024-02-14T14:50:03;12.30;99.90
36206;DHT22;22242;48.796;9.930;2024-02-14T14:52:31;12.30;99.90
36206;DHT22;22242;48.796;9.930;2024-02-14T14:54:57;12.30;99.90
36206;DHT22;22242;48.796;9.930;2024-02-14T14:57:26;12.30;99.90
36206;DHT22;22242;48.796;9.930;2024-02-14T14:59:53;12.20;99.90
36206;DHT22;22242;48.796;9.930;2024-02-14T15:02:20;12.20;99.90
36206;DHT22;22242;48.796;9.930;2024-02-14T15:04:47;12.20;99.90
36206;DHT22;22242;48.796;9.930;2024-02-14T15:07:16;12.20;99.90
36206;DHT22;22242;48.796;9.930;2024-02-14T15:09:45;12.20;99.90
36206;DHT22;22242;48.796;9.930;2024-02-14T15:12:12;12.20;99.90
36206;DHT22;22242;48.796;9.930;2024-02-14T15:14:40;12.20;99.90
36206;DHT22;22242;48.796;9.930;2024-02-14T15:17:07;12.00;99.90
36206;DHT22;22242;48.796;9.930;2024-02-14T15:19:34;12.00;99.90
36206;DHT22;22242;48.796;9.930;2024-02-14T15:22:01;11.90;99.90
36206;DHT22;22242;48.796;9.930;2024-02-14T15:24:29;11.90;99.90
36206;DHT22;22242;48.796;9.930;2024-02-14T15:26:55;11.90;99.90
36206;DHT22;22242;48.796;9.930;2024-02-14T15:29:26;11.90;99.90
36206;DHT22;22242;48.796;9.930;2024-02-14T15:32:11;11.90;99.90
36206;DHT22;22242;48.796;9.930;2024-02-14T15:34:56;11.90;99.90
36206;DHT22;22242;48.796;9.930;2024-02-14T15:37:23;11.80;99.90
36206;DHT22;22242;48.796;9.930;2024-02-14T15:39:49;11.80;99.90
36206;DHT22;22242;48.796;9.930;2024-02-14T15:42:17;11.80;99.90